모두
Thruxton Aerodrome Airport (Andover, England) EGHO 기상
There is no TAF data available at EGHO. Showing TAF data for EGVP (5 mi 남).
EGVP 터미널 지역 예측(EGHO에 대한 데이터 없음)
| Date | Time (BST) | Flight Rules | Wind Dir. | Speed | Type | Height AGL (ft) | Visibility | Remarks | ||||||
|---|---|---|---|---|---|---|---|---|---|---|---|---|---|---|
There is no METAR data available at EGHO. Showing METAR data for EGVP (5 mi 남).
최근 EGVP METAR 이력(EGHO에 대한 데이터 없음)
| Date | Time (BST) | Flight Rules | Wind Dir. | Speed | Type | Height AGL (ft) | Visibility | Temp (°C) | Temp (°F) | Dew Point (°C) | Dew Point (°F) | Rel. Humid. | Pressure | Density Altitude | Remarks |
|---|---|---|---|---|---|---|---|---|---|---|---|---|---|---|---|
| 05-9월 | 08:50 | VFR | 270° | 7 kt | 10000 meters | 15° | 59° | 11° | 51° | 77% | 1023 mb | -8 ft | |||
| 05-9월 | 08:20 | VFR | 240° | 5 kt | 10000 meters | 14° | 57° | 11° | 51° | 82% | 1023 mb | -128 ft | |||
| 05-9월 | 07:50 | VFR | 250° | 5 kt | 10000 meters | 13° | 55° | 11° | 51° | 88% | 1023 mb | -248 ft | |||
| 05-9월 | 07:20 | VFR | 250° | 6 kt | 10000 meters |
12° | 53° | 10° | 50° | 88% | 1023 mb | -368 ft | |||
| 05-9월 | 06:50 | VFR | 240° | 6 kt | 9000 meters |
11° | 51° | 10° | 50° | 94% | 1023 mb | -488 ft | Mist | ||
| 05-9월 | 06:20 | VFR | 240° | 8 kt | 10000 meters |
11° | 51° | 10° | 50° | 94% | 1022 mb | -459 ft | Mist | ||
| 05-9월 | 05:50 | VFR | 240° | 7 kt | 9000 meters | 10° | 50° | 9° | 48° | 93% | 1022 mb | -579 ft | Mist | ||
| 05-9월 | 05:20 | VFR | 240° | 5 kt | Few |
4,000 |
9000 meters | 10° | 50° | 9° | 48° | 93% | 1022 mb | -579 ft | |
| 05-9월 | 04:50 | VFR | 230° | 4 kt | Few |
4,100 |
9000 meters |
10° | 50° | 9° | 48° | 93% | 1022 mb | -579 ft | Mist |
| 05-9월 | 04:20 | VFR | 240° | 2 kt | 10000 meters | 11° | 51° | 9° | 48° | 87% | 1021 mb | -429 ft | |||
| 05-9월 | 03:50 | VFR | 240° | 5 kt | 10000 meters | 11° | 51° | 9° | 48° | 87% | 1021 mb | -429 ft | |||
| 05-9월 | 03:20 | VFR | 230° | 4 kt | 10000 meters | 11° | 51° | 9° | 48° | 87% | 1021 mb | -429 ft | |||
| 05-9월 | 02:50 | VFR | 230° | 5 kt | 10000 meters | 11° | 51° | 10° | 50° | 94% | 1021 mb | -429 ft | |||
| 05-9월 | 02:20 | VFR | 230° | 5 kt | 10000 meters | 12° | 53° | 10° | 50° | 88% | 1020 mb | -280 ft | |||
| 05-9월 | 01:50 | VFR | 230° | 5 kt | 10000 meters | 12° | 53° | 10° | 50° | 88% | 1020 mb | -280 ft | |||
| 05-9월 | 01:20 | VFR | 220° | 7 kt | 10000 meters | 12° | 53° | 10° | 50° | 88% | 1020 mb | -280 ft | |||
| 05-9월 | 00:50 | VFR | 220° | 5 kt | 10000 meters | 12° | 53° | 10° | 50° | 88% | 1020 mb | -280 ft | |||
| 05-9월 | 00:20 | VFR | 220° | 6 kt | 10000 meters | 12° | 53° | 10° | 50° | 88% | 1020 mb | -280 ft | |||
| 04-9월 | 23:50 | VFR | 220° | 5 kt | 10000 meters | 12° | 53° | 10° | 50° | 88% | 1020 mb | -280 ft | |||
| 04-9월 | 23:20 | VFR | 220° | 4 kt | 10000 meters | 12° | 53° | 10° | 50° | 88% | 1020 mb | -280 ft | |||
| 04-9월 | 22:50 | VFR | 190° | 5 kt | 10000 meters | 13° | 55° | 11° | 51° | 88% | 1019 mb | -130 ft | |||
| 04-9월 | 22:20 | VFR | 250° | 4 kt | 10000 meters | 13° | 55° | 10° | 50° | 82% | 1019 mb | -130 ft | |||
| 04-9월 | 21:50 | VFR | 240° | 4 kt | 10000 meters | 13° | 55° | 10° | 50° | 82% | 1019 mb | -130 ft | |||
| 04-9월 | 21:20 | VFR | 200° | 5 kt | 10000 meters | 14° | 57° | 10° | 50° | 77% | 1019 mb | -10 ft |
로그인
| 귀하의 브라우저는 지원되지 않습니다.. 브라우저를 업그레이드하세요 |
